John G — WDF2677 — position and weather

sailwx.info

Track history (hours):
 
Tides and Currents Weather Stations Pressure Air Temp Water Temp Dewpoint Dewpoint Depression Visibility Wind Speed Wind Dir Waves Ship Positions

John G

Owner: Marquette Transportation Company Offshore LLC, Jefferson, LA. More information available from US FCC via Universal Licensing System and Coast Guard Vessel Documentation Center.

Last reported at 2015-Feb-22 07:21 UTC. Time now 2015-Feb-27 11:40 UTC.
Position N 29°59' W 090°49'.

Length 30 m; draft 3.3 m.

Type: Towing. MMSI: 367009680.

Date/timePositionNaut miles runAvg speedWind from/ knotsBaromVisibWave heightAir tempDewpointWater temp
2015-Feb-22 07:21N 29°59' W 090°49'  
2015-Feb-20 01:05N 29°56' W 090°11'6 4.0
2015-Feb-19 23:33N 29°55' W 090°04'0 0.0
2015-Feb-19 22:31N 29°55' W 090°04'2 1.5
2015-Feb-19 21:32N 29°55' W 090°05'1 1.1
2015-Feb-19 20:32N 29°54' W 090°05'  
2015-Feb-14 15:29N 29°54' W 090°05'0 0.0
2015-Feb-14 14:33N 29°54' W 090°05'0 0.0
2015-Feb-14 13:33N 29°54' W 090°05'0 0.0
2015-Feb-14 12:33N 29°54' W 090°05'0 0.0
2015-Feb-14 11:33N 29°54' W 090°05'0 0.0
2015-Feb-14 10:33N 29°54' W 090°05'0 0.0
2015-Feb-14 09:33N 29°54' W 090°05'0 0.0
2015-Feb-14 08:33N 29°54' W 090°05'0 0.0
2015-Feb-14 07:33N 29°54' W 090°05'0 0.0
2015-Feb-14 06:33N 29°54' W 090°05'0 0.0
2015-Feb-14 05:32N 29°54' W 090°05'4 4.3
2015-Feb-14 04:30N 29°49' W 090°04'12 5.6
2015-Feb-14 02:21N 29°40' W 090°13'41 1.7
2015-Feb-13 02:23N 29°37' W 090°60'4 5.4
2015-Feb-13 01:33N 29°38' W 091°05'4 4.3
2015-Feb-13 00:33N 29°41' W 091°09'3 2.5
2015-Feb-12 23:34N 29°41' W 091°12'5 5.4
2015-Feb-12 22:33N 29°39' W 091°17'7 6.6
2015-Feb-12 21:33N 29°39' W 091°25'6 5.1
2015-Feb-12 20:27N 29°42' W 091°31'14 1.3
2015-Feb-12 10:08N 29°46' W 091°46'0 0.0
2015-Feb-12 09:33N 29°46' W 091°46'0 0.0
2015-Feb-12 08:30N 29°46' W 091°46'0 0.0
2015-Feb-12 07:33N 29°46' W 091°46'  
Track history (hours):
 
Tides and Currents Weather Stations Pressure Air Temp Water Temp Dewpoint Dewpoint Depression Visibility Wind Speed Wind Dir Waves Ship Positions

John G

Owner: Marquette Transportation Company Offshore LLC, Jefferson, LA. More information available from US FCC via Universal Licensing System and Coast Guard Vessel Documentation Center.

Last reported at 2015-Feb-22 07:21 UTC. Time now 2015-Feb-27 11:40 UTC.
Position N 29°59' W 090°49'.

Length 30 m; draft 3.3 m.

Type: Towing. MMSI: 367009680.

Date/timePositionNaut miles runAvg speedWind from/ knotsBaromVisibWave heightAir tempDewpointWater temp
2015-Feb-22 07:21N 29°59' W 090°49'  
2015-Feb-20 01:05N 29°56' W 090°11'6 4.0
2015-Feb-19 23:33N 29°55' W 090°04'0 0.0
2015-Feb-19 22:31N 29°55' W 090°04'2 1.5
2015-Feb-19 21:32N 29°55' W 090°05'1 1.1
2015-Feb-19 20:32N 29°54' W 090°05'  
2015-Feb-14 15:29N 29°54' W 090°05'0 0.0
2015-Feb-14 14:33N 29°54' W 090°05'0 0.0
2015-Feb-14 13:33N 29°54' W 090°05'0 0.0
2015-Feb-14 12:33N 29°54' W 090°05'0 0.0
2015-Feb-14 11:33N 29°54' W 090°05'0 0.0
2015-Feb-14 10:33N 29°54' W 090°05'0 0.0
2015-Feb-14 09:33N 29°54' W 090°05'0 0.0
2015-Feb-14 08:33N 29°54' W 090°05'0 0.0
2015-Feb-14 07:33N 29°54' W 090°05'0 0.0
2015-Feb-14 06:33N 29°54' W 090°05'0 0.0
2015-Feb-14 05:32N 29°54' W 090°05'4 4.3
2015-Feb-14 04:30N 29°49' W 090°04'12 5.6
2015-Feb-14 02:21N 29°40' W 090°13'41 1.7
2015-Feb-13 02:23N 29°37' W 090°60'4 5.4
2015-Feb-13 01:33N 29°38' W 091°05'4 4.3
2015-Feb-13 00:33N 29°41' W 091°09'3 2.5
2015-Feb-12 23:34N 29°41' W 091°12'5 5.4
2015-Feb-12 22:33N 29°39' W 091°17'7 6.6
2015-Feb-12 21:33N 29°39' W 091°25'6 5.1
2015-Feb-12 20:27N 29°42' W 091°31'14 1.3
2015-Feb-12 10:08N 29°46' W 091°46'0 0.0
2015-Feb-12 09:33N 29°46' W 091°46'0 0.0
2015-Feb-12 08:30N 29°46' W 091°46'0 0.0
2015-Feb-12 07:33N 29°46' W 091°46'  

Dump ship's entire track history